Time;durP1;ratioP1;P1;durP2;ratioP2;P2;SDS_P1;SDS_P2;PMS_P1;PMS_P2;Temp;Humidity;BMP_temperature;BMP_pressure;BME280_temperature;BME280_humidity;BME280_pressure;Samples;Min_cycle;Max_cycle;Signal;HPM_P1;HPM_P2
2023/09/25 00:02:21;;;;;;;3.72;2.42;;;9.20;99.90;;;;;;4889167;29;20044;-68
2023/09/25 00:04:53;;;;;;;4.03;2.30;;;9.20;99.90;;;;;;4885697;29;20048;-69
2023/09/25 00:07:25;;;;;;;4.25;2.20;;;9.20;99.90;;;;;;4884975;29;20110;-69
2023/09/25 00:09:56;;;;;;;2.17;1.80;;;9.20;99.90;;;;;;4869315;29;20045;-69
2023/09/25 00:12:28;;;;;;;4.38;2.72;;;9.10;99.90;;;;;;4889547;29;20045;-68
2023/09/25 00:15:01;;;;;;;5.07;2.50;;;9.10;99.90;;;;;;4885265;29;20044;-68
2023/09/25 00:17:33;;;;;;;3.13;2.38;;;9.10;99.90;;;;;;4885597;29;20124;-68
2023/09/25 00:20:00;;;;;;;3.38;2.22;;;9.00;99.90;;;;;;4879002;29;20396;-69
2023/09/25 00:22:32;;;;;;;3.10;2.10;;;9.00;99.90;;;;;;4875088;29;20059;-68
2023/09/25 00:25:05;;;;;;;4.45;2.78;;;9.00;99.90;;;;;;4873937;29;20060;-69
2023/09/25 00:27:37;;;;;;;5.47;2.40;;;9.00;99.90;;;;;;4888071;29;20055;-68
2023/09/25 00:30:09;;;;;;;3.25;2.33;;;8.90;99.90;;;;;;4879123;29;20051;-68
2023/09/25 00:32:37;;;;;;;8.50;2.78;;;8.90;99.90;;;;;;4887483;29;20045;-68
2023/09/25 00:35:09;;;;;;;2.50;2.13;;;8.80;99.90;;;;;;4890744;29;20041;-67
2023/09/25 00:37:41;;;;;;;5.30;2.88;;;8.80;99.90;;;;;;4878787;29;20535;-68
2023/09/25 00:40:13;;;;;;;4.07;2.58;;;8.70;99.90;;;;;;4858430;29;20071;-68
2023/09/25 00:42:49;;;;;;;4.10;2.83;;;8.70;99.90;;;;;;4872528;29;20048;-69
2023/09/25 00:45:17;;;;;;;3.20;2.40;;;8.60;99.90;;;;;;4882052;29;20037;-69
2023/09/25 00:47:50;;;;;;;4.20;3.17;;;8.60;99.90;;;;;;4878858;29;20048;-67
2023/09/25 00:50:29;;;;;;;3.85;2.53;;;8.60;99.90;;;;;;4869636;29;20502;-68
2023/09/25 00:53:09;;;;;;;3.58;2.47;;;8.60;99.90;;;;;;4870901;29;20067;-68
2023/09/25 00:55:41;;;;;;;2.85;2.17;;;8.50;99.90;;;;;;4880793;29;20059;-68
2023/09/25 00:58:14;;;;;;;4.10;2.92;;;8.50;99.90;;;;;;4878426;29;20056;-68
2023/09/25 01:00:42;;;;;;;4.18;2.15;;;8.40;99.90;;;;;;4875476;29;20103;-68
2023/09/25 01:03:14;;;;;;;3.70;2.70;;;8.40;99.90;;;;;;4888013;29;20041;-68
2023/09/25 01:05:41;;;;;;;4.50;2.22;;;8.40;99.90;;;;;;4873251;29;20127;-68
2023/09/25 01:08:13;;;;;;;3.15;2.20;;;8.40;99.90;;;;;;4876923;29;20052;-68
2023/09/25 01:10:46;;;;;;;3.22;2.05;;;8.40;99.90;;;;;;4873870;29;20068;-68
2023/09/25 01:13:18;;;;;;;3.40;2.17;;;8.40;99.90;;;;;;4889915;29;20055;-70
2023/09/25 01:15:50;;;;;;;3.85;2.40;;;8.30;99.90;;;;;;4872024;29;20184;-68
2023/09/25 01:18:22;;;;;;;4.32;2.17;;;8.30;99.90;;;;;;4868701;29;20045;-68
2023/09/25 01:20:54;;;;;;;3.72;2.38;;;8.30;99.90;;;;;;4868839;29;20055;-68
2023/09/25 01:23:26;;;;;;;3.70;2.38;;;8.30;99.90;;;;;;4869375;29;20145;-68
2023/09/25 01:25:58;;;;;;;3.85;2.40;;;8.30;99.90;;;;;;4858620;29;20080;-67
2023/09/25 01:28:25;;;;;;;3.65;2.72;;;8.30;99.90;;;;;;4883591;29;20041;-68
2023/09/25 01:30:58;;;;;;;3.88;2.65;;;8.30;99.90;;;;;;4873955;29;20056;-68
2023/09/25 01:33:28;;;;;;;4.85;2.60;;;8.30;99.90;;;;;;4873557;29;20044;-68
2023/09/25 01:35:59;;;;;;;3.97;2.40;;;8.30;99.90;;;;;;4873076;29;20276;-68
2023/09/25 01:38:32;;;;;;;5.00;2.97;;;8.30;99.90;;;;;;4857564;29;20053;-68
2023/09/25 01:41:04;;;;;;;4.60;2.45;;;8.30;99.90;;;;;;4870991;29;20060;-68
2023/09/25 01:43:36;;;;;;;4.00;2.40;;;8.30;99.90;;;;;;4879657;29;20064;-68
2023/09/25 01:46:08;;;;;;;6.88;3.75;;;8.30;99.90;;;;;;4876878;29;20067;-68
2023/09/25 01:48:40;;;;;;;4.15;2.03;;;8.20;99.90;;;;;;4878353;29;20155;-68
2023/09/25 01:51:12;;;;;;;3.50;2.10;;;8.20;99.90;;;;;;4880953;29;20060;-70
2023/09/25 01:53:46;;;;;;;3.63;2.90;;;8.20;99.90;;;;;;4865565;29;20128;-68
2023/09/25 01:56:13;;;;;;;5.15;3.00;;;8.10;99.90;;;;;;4875052;29;20041;-68
2023/09/25 01:58:45;;;;;;;4.63;2.40;;;8.20;99.90;;;;;;4872073;29;20044;-68
2023/09/25 02:01:17;;;;;;;4.20;2.20;;;8.10;99.90;;;;;;4886338;29;20055;-68
2023/09/25 02:03:45;;;;;;;4.15;2.08;;;8.20;99.90;;;;;;4870510;29;20116;-68
2023/09/25 02:06:17;;;;;;;3.13;2.10;;;8.10;99.90;;;;;;4872341;29;20128;-67
2023/09/25 02:08:49;;;;;;;3.80;2.53;;;8.20;99.90;;;;;;4888862;29;20055;-68
2023/09/25 02:11:20;;;;;;;4.15;2.30;;;8.10;99.90;;;;;;4871922;29;20060;-67
2023/09/25 02:13:47;;;;;;;5.63;2.80;;;8.10;99.90;;;;;;4870373;29;20472;-68
2023/09/25 02:16:19;;;;;;;3.13;2.13;;;8.10;99.90;;;;;;4866769;29;20053;-69
2023/09/25 02:18:51;;;;;;;5.57;2.40;;;8.10;99.90;;;;;;4867149;29;20047;-69
2023/09/25 02:21:23;;;;;;;3.63;2.33;;;8.10;99.90;;;;;;4864343;29;20060;-68
2023/09/25 02:23:50;;;;;;;3.38;2.17;;;8.00;99.90;;;;;;4867425;29;20036;-68
2023/09/25 02:26:22;;;;;;;4.45;2.70;;;8.00;99.90;;;;;;4861442;29;20049;-68
2023/09/25 02:28:49;;;;;;;3.83;2.42;;;8.00;99.90;;;;;;4887924;29;20045;-68
2023/09/25 02:31:21;;;;;;;4.80;2.20;;;7.90;99.90;;;;;;4889644;29;20080;-68
2023/09/25 02:33:48;;;;;;;2.97;2.28;;;8.00;99.90;;;;;;4872216;29;20040;-70
2023/09/25 02:36:16;;;;;;;4.45;2.25;;;7.90;99.90;;;;;;4854378;29;20052;-69
2023/09/25 02:38:43;;;;;;;4.53;2.65;;;7.90;99.90;;;;;;4887393;29;20048;-70
2023/09/25 02:41:16;;;;;;;3.33;2.85;;;7.90;99.90;;;;;;4887725;29;20052;-68
2023/09/25 02:43:48;;;;;;;4.97;2.75;;;7.90;99.90;;;;;;4874728;29;20058;-68
2023/09/25 02:46:19;;;;;;;8.32;4.25;;;7.90;99.90;;;;;;4869223;29;20048;-68
2023/09/25 02:48:52;;;;;;;4.78;2.92;;;7.90;99.90;;;;;;4866866;29;20661;-70
2023/09/25 02:51:25;;;;;;;3.88;2.67;;;7.90;99.90;;;;;;4878975;29;20100;-68
2023/09/25 02:53:57;;;;;;;4.00;2.92;;;7.90;99.90;;;;;;4883372;29;20059;-68
2023/09/25 02:56:29;;;;;;;4.20;2.80;;;7.90;99.90;;;;;;4861419;29;20148;-68
2023/09/25 02:59:01;;;;;;;6.18;3.45;;;7.90;99.90;;;;;;4869628;29;20305;-69
2023/09/25 03:01:34;;;;;;;5.55;3.25;;;7.80;99.90;;;;;;4855772;29;20059;-72
2023/09/25 03:04:01;;;;;;;4.43;3.25;;;7.80;99.90;;;;;;4891265;29;20044;-68
2023/09/25 03:06:27;;;;;;;7.28;3.25;;;7.70;99.90;;;;;;4870059;29;20480;-68
2023/09/25 03:08:54;;;;;;;4.15;2.80;;;7.70;99.90;;;;;;4889490;29;20586;-68
2023/09/25 03:11:21;;;;;;;5.65;2.45;;;7.60;99.90;;;;;;4871851;29;20140;-68
2023/09/25 03:13:54;;;;;;;3.65;2.58;;;7.60;99.90;;;;;;4865307;29;20092;-68
2023/09/25 03:16:26;;;;;;;6.25;2.58;;;7.60;99.90;;;;;;4870998;29;20063;-68
2023/09/25 03:18:58;;;;;;;2.78;2.25;;;7.50;99.90;;;;;;4885142;29;20077;-68
2023/09/25 03:21:25;;;;;;;4.55;2.67;;;7.50;99.90;;;;;;4869426;29;20053;-70
2023/09/25 03:23:57;;;;;;;4.88;2.70;;;7.50;99.90;;;;;;4866284;29;20441;-68
2023/09/25 03:26:29;;;;;;;5.40;2.63;;;7.50;99.90;;;;;;4867037;29;20045;-68
2023/09/25 03:29:04;;;;;;;4.95;2.28;;;7.60;99.90;;;;;;4872889;29;20044;-69
2023/09/25 03:31:35;;;;;;;5.32;2.72;;;7.80;99.90;;;;;;4886418;29;20048;-69
2023/09/25 03:34:02;;;;;;;5.07;3.20;;;8.10;99.90;;;;;;4883187;29;20057;-69
2023/09/25 03:36:34;;;;;;;4.90;2.08;;;8.00;99.90;;;;;;4888363;29;20052;-69
2023/09/25 03:39:06;;;;;;;6.32;2.90;;;8.00;99.90;;;;;;4870481;29;20045;-68
2023/09/25 03:41:38;;;;;;;5.75;2.33;;;7.90;99.90;;;;;;4884781;29;20067;-69
2023/09/25 03:44:10;;;;;;;13.38;3.15;;;7.90;99.90;;;;;;4873209;29;20152;-69
2023/09/25 03:46:42;;;;;;;6.18;2.60;;;7.80;99.90;;;;;;4870478;29;20510;-68
2023/09/25 03:49:09;;;;;;;4.32;2.30;;;7.70;99.90;;;;;;4880003;29;20065;-68
2023/09/25 03:51:41;;;;;;;2.83;2.15;;;7.70;99.90;;;;;;4862988;29;20064;-67
2023/09/25 03:54:13;;;;;;;5.05;2.70;;;7.60;99.90;;;;;;4866772;29;20080;-70
2023/09/25 03:56:45;;;;;;;3.47;2.47;;;7.60;99.90;;;;;;4863508;29;20128;-68
2023/09/25 03:59:12;;;;;;;4.50;2.53;;;7.60;99.90;;;;;;4881870;29;20041;-68
2023/09/25 04:01:44;;;;;;;3.38;2.53;;;7.50;99.90;;;;;;4884150;29;20132;-68
2023/09/25 04:04:16;;;;;;;3.47;2.58;;;7.50;99.90;;;;;;4877230;29;20541;-67
2023/09/25 04:06:48;;;;;;;6.40;3.38;;;7.40;99.90;;;;;;4881533;29;20048;-67
2023/09/25 04:09:20;;;;;;;5.03;2.80;;;7.40;99.90;;;;;;4892069;29;20045;-67
2023/09/25 04:11:52;;;;;;;4.97;3.10;;;7.40;99.90;;;;;;4874984;29;20039;-68
2023/09/25 04:14:24;;;;;;;4.70;3.05;;;7.40;99.90;;;;;;4890409;29;20067;-67
2023/09/25 04:16:51;;;;;;;3.83;2.70;;;7.40;99.90;;;;;;4878888;29;20140;-68
2023/09/25 04:19:23;;;;;;;7.75;3.30;;;7.30;99.90;;;;;;4859795;29;20052;-67
2023/09/25 04:21:52;;;;;;;6.90;3.47;;;7.30;99.90;;;;;;4872797;29;20072;-68
2023/09/25 04:24:23;;;;;;;5.78;3.40;;;7.30;99.90;;;;;;4887550;29;20060;-68
2023/09/25 04:26:55;;;;;;;5.47;3.30;;;7.20;99.90;;;;;;4882380;29;20596;-68
2023/09/25 04:29:27;;;;;;;8.23;3.30;;;7.30;99.90;;;;;;4903470;29;20037;-67
2023/09/25 04:31:54;;;;;;;5.45;3.20;;;7.30;99.90;;;;;;4901753;29;20040;-67
2023/09/25 04:34:26;;;;;;;5.45;3.33;;;7.30;99.90;;;;;;4885269;29;20052;-68
2023/09/25 04:36:53;;;;;;;6.05;3.28;;;7.30;99.90;;;;;;4902675;29;20500;-68
2023/09/25 04:39:20;;;;;;;4.07;3.00;;;7.30;99.90;;;;;;4901303;29;20548;-68
2023/09/25 04:41:53;;;;;;;9.30;3.90;;;7.30;99.90;;;;;;4868140;29;20067;-68
2023/09/25 04:44:24;;;;;;;5.18;2.92;;;7.20;99.90;;;;;;4900714;29;20048;-67
2023/09/25 04:46:56;;;;;;;3.13;2.55;;;7.20;99.90;;;;;;4891065;29;20105;-68
2023/09/25 04:49:28;;;;;;;5.65;3.35;;;7.20;99.90;;;;;;4870457;29;20052;-67
2023/09/25 04:51:59;;;;;;;4.47;2.90;;;7.20;99.90;;;;;;4879221;29;20037;-68
2023/09/25 04:54:31;;;;;;;8.63;3.13;;;7.20;99.90;;;;;;4877418;29;20053;-67
2023/09/25 04:57:03;;;;;;;8.25;3.50;;;7.20;99.90;;;;;;4888199;29;20404;-68
2023/09/25 04:59:35;;;;;;;7.40;3.15;;;7.20;99.90;;;;;;4890157;29;20056;-68
2023/09/25 05:02:07;;;;;;;10.95;3.67;;;7.20;99.90;;;;;;4891393;29;20049;-69
2023/09/25 05:04:39;;;;;;;5.65;3.42;;;7.20;99.90;;;;;;4862917;29;20514;-67
2023/09/25 05:07:07;;;;;;;8.82;3.28;;;7.20;99.90;;;;;;4888805;29;20491;-67
2023/09/25 05:09:39;;;;;;;5.27;3.30;;;7.20;99.90;;;;;;4865987;29;20139;-68
2023/09/25 05:12:11;;;;;;;5.75;2.78;;;7.20;99.90;;;;;;4870678;29;20044;-68
2023/09/25 05:14:39;;;;;;;7.50;3.10;;;7.20;99.90;;;;;;4891372;29;20049;-67
2023/09/25 05:17:11;;;;;;;5.60;3.25;;;7.10;99.90;;;;;;4888596;29;20056;-67
2023/09/25 05:19:38;;;;;;;6.47;2.72;;;7.10;99.90;;;;;;4889196;29;20045;-68
2023/09/25 05:22:10;;;;;;;5.75;3.10;;;7.10;99.90;;;;;;4885022;29;20132;-68
2023/09/25 05:24:42;;;;;;;5.95;3.60;;;7.20;99.90;;;;;;4888368;29;20123;-68
2023/09/25 05:27:14;;;;;;;6.03;3.40;;;7.20;99.90;;;;;;4886071;29;20052;-67
2023/09/25 05:29:46;;;;;;;12.55;3.40;;;7.20;99.90;;;;;;4886943;29;20048;-67
2023/09/25 05:32:18;;;;;;;6.80;4.18;;;7.10;99.90;;;;;;4889847;29;20454;-67
2023/09/25 05:34:50;;;;;;;7.88;3.92;;;7.00;99.90;;;;;;4885514;29;20053;-68
2023/09/25 05:37:22;;;;;;;6.32;3.97;;;6.90;99.90;;;;;;4879716;29;20166;-67
2023/09/25 05:39:54;;;;;;;5.72;3.25;;;6.90;99.90;;;;;;4889940;29;20139;-68
2023/09/25 05:42:26;;;;;;;4.30;3.10;;;6.90;99.90;;;;;;4887215;29;20056;-67
2023/09/25 05:44:58;;;;;;;5.00;4.25;;;6.90;99.90;;;;;;4891141;29;20135;-68
2023/09/25 05:47:31;;;;;;;5.63;3.88;;;6.90;99.90;;;;;;4861613;29;20049;-67
2023/09/25 05:50:06;;;;;;;7.97;4.40;;;6.90;99.90;;;;;;4893205;29;20052;-68
2023/09/25 05:52:41;;;;;;;5.57;3.88;;;6.90;99.90;;;;;;4889500;29;20040;-69
2023/09/25 05:55:10;;;;;;;6.45;3.97;;;7.00;99.90;;;;;;4868070;29;20055;-70
2023/09/25 05:57:42;;;;;;;5.30;3.80;;;7.00;99.90;;;;;;4879948;29;20075;-69
2023/09/25 06:00:14;;;;;;;9.32;4.93;;;7.00;99.90;;;;;;4892919;29;20064;-68
2023/09/25 06:02:46;;;;;;;11.27;4.78;;;7.10;99.90;;;;;;4872967;29;20049;-68
2023/09/25 06:05:18;;;;;;;7.93;4.68;;;7.10;99.90;;;;;;4872166;29;20056;-68
2023/09/25 06:07:50;;;;;;;5.55;4.43;;;7.20;99.90;;;;;;4885340;29;20049;-68
2023/09/25 06:10:23;;;;;;;11.05;4.72;;;7.20;99.90;;;;;;4889996;29;20112;-68
2023/09/25 06:12:55;;;;;;;5.35;4.32;;;7.20;99.90;;;;;;4873560;29;20092;-68
2023/09/25 06:15:24;;;;;;;8.00;4.22;;;7.30;99.90;;;;;;4890532;29;20148;-66
2023/09/25 06:17:58;;;;;;;6.40;4.28;;;7.30;99.90;;;;;;4890493;29;20072;-68
2023/09/25 06:20:26;;;;;;;8.93;4.57;;;7.40;99.90;;;;;;4869351;29;20073;-69
2023/09/25 06:23:00;;;;;;;8.80;4.03;;;7.50;99.90;;;;;;4886688;29;20517;-67
2023/09/25 06:25:32;;;;;;;;;;;7.50;99.90;;;;;;4890249;29;20048;-67
2023/09/25 06:28:05;;;;;;;9.52;4.50;;;7.60;99.90;;;;;;4891019;29;20455;-68
2023/09/25 06:30:37;;;;;;;6.93;4.10;;;7.60;99.90;;;;;;4877313;29;20470;-68
2023/09/25 06:33:09;;;;;;;8.90;4.32;;;7.70;99.90;;;;;;4876882;29;20049;-68
2023/09/25 06:35:42;;;;;;;5.22;3.97;;;7.70;99.90;;;;;;4863166;29;20410;-68
2023/09/25 06:38:09;;;;;;;5.38;4.30;;;7.80;99.90;;;;;;4888822;29;20131;-68
2023/09/25 06:40:43;;;;;;;6.88;4.55;;;7.80;99.90;;;;;;4886421;29;20048;-68
2023/09/25 06:43:15;;;;;;;6.20;4.38;;;7.90;99.90;;;;;;4889002;29;20033;-68
2023/09/25 06:45:47;;;;;;;7.55;4.63;;;8.00;99.90;;;;;;4889683;29;20049;-68
2023/09/25 06:48:19;;;;;;;9.55;4.72;;;8.10;99.90;;;;;;4889105;29;20037;-68
2023/09/25 06:50:51;;;;;;;6.25;3.88;;;8.10;99.90;;;;;;4891525;29;20041;-68
2023/09/25 06:53:24;;;;;;;5.40;4.55;;;8.30;99.90;;;;;;4873035;29;20505;-67
2023/09/25 06:55:55;;;;;;;6.82;5.22;;;8.30;99.90;;;;;;4882465;29;20053;-67
2023/09/25 06:58:28;;;;;;;6.90;4.70;;;8.40;99.90;;;;;;4884414;29;20599;-68
2023/09/25 07:01:00;;;;;;;7.15;4.90;;;8.50;99.90;;;;;;4887135;29;20049;-68
2023/09/25 07:03:32;;;;;;;9.55;5.55;;;8.60;99.90;;;;;;4884168;29;20041;-68
2023/09/25 07:06:04;;;;;;;8.40;6.68;;;8.60;99.90;;;;;;4871237;29;20550;-68
2023/09/25 07:08:38;;;;;;;8.15;6.13;;;8.70;99.90;;;;;;4889138;29;20037;-68
2023/09/25 07:11:10;;;;;;;8.18;6.50;;;8.80;99.90;;;;;;4887737;29;20040;-68
2023/09/25 07:13:37;;;;;;;15.65;7.13;;;8.90;99.90;;;;;;4887514;29;20061;-68
2023/09/25 07:16:08;;;;;;;16.27;7.07;;;9.00;99.90;;;;;;4863387;29;20108;-68
2023/09/25 07:18:35;;;;;;;9.45;5.95;;;9.10;99.90;;;;;;4875487;29;20049;-68
2023/09/25 07:21:07;;;;;;;9.68;6.88;;;9.20;99.90;;;;;;4877170;29;20078;-68
2023/09/25 07:23:39;;;;;;;10.52;5.97;;;9.30;99.90;;;;;;4890715;29;20505;-68
2023/09/25 07:26:11;;;;;;;11.88;8.25;;;9.40;99.90;;;;;;4888643;29;20139;-68
2023/09/25 07:28:47;;;;;;;11.73;6.80;;;9.50;99.90;;;;;;4883040;29;20045;-68
2023/09/25 07:31:22;;;;;;;14.43;7.22;;;9.60;99.90;;;;;;4887005;29;20510;-68
2023/09/25 07:33:55;;;;;;;9.77;6.35;;;9.70;99.90;;;;;;4877572;29;20140;-68
2023/09/25 07:36:27;;;;;;;11.02;6.30;;;9.80;99.90;;;;;;4870112;29;20048;-68
2023/09/25 07:39:00;;;;;;;11.23;6.57;;;9.80;99.90;;;;;;4887013;29;20096;-68
2023/09/25 07:41:32;;;;;;;10.27;7.40;;;9.90;99.90;;;;;;4877667;29;20040;-68
2023/09/25 07:44:07;;;;;;;10.98;7.15;;;10.10;99.90;;;;;;4877793;29;20574;-68
2023/09/25 07:46:39;;;;;;;9.93;6.50;;;10.20;99.90;;;;;;4877777;29;20045;-68
2023/09/25 07:49:12;;;;;;;11.93;6.72;;;10.20;99.90;;;;;;4884463;29;20040;-68
2023/09/25 07:51:44;;;;;;;14.38;7.47;;;10.40;99.90;;;;;;4890255;29;20036;-68
2023/09/25 07:54:15;;;;;;;9.32;6.03;;;10.50;99.90;;;;;;4868424;29;20068;-68
2023/09/25 07:56:47;;;;;;;8.25;6.10;;;10.60;99.90;;;;;;4867649;29;20049;-68
2023/09/25 07:59:25;;;;;;;7.93;6.13;;;10.70;99.90;;;;;;4867438;29;20509;-68
2023/09/25 08:01:57;;;;;;;11.70;7.10;;;10.80;99.90;;;;;;4867130;29;20052;-68
2023/09/25 08:04:29;;;;;;;16.30;8.23;;;10.90;99.90;;;;;;4880094;29;20045;-68
2023/09/25 08:07:02;;;;;;;16.45;8.35;;;11.10;99.90;;;;;;4865609;29;20079;-68
2023/09/25 08:09:31;;;;;;;17.42;7.22;;;11.20;99.90;;;;;;4872186;29;20060;-68
2023/09/25 08:12:03;;;;;;;8.98;6.05;;;11.30;99.90;;;;;;4873882;29;20403;-68
2023/09/25 08:14:35;;;;;;;9.02;5.75;;;11.40;99.90;;;;;;4892201;29;20600;-70
2023/09/25 08:17:02;;;;;;;6.60;5.88;;;11.50;99.90;;;;;;4891628;29;20537;-68
2023/09/25 08:19:34;;;;;;;12.55;5.75;;;11.70;99.90;;;;;;4889054;29;20044;-68
2023/09/25 08:22:07;;;;;;;10.35;4.88;;;11.80;99.90;;;;;;4879094;29;20429;-68
2023/09/25 08:24:39;;;;;;;12.30;5.38;;;11.90;99.90;;;;;;4871273;29;20052;-68
2023/09/25 08:27:11;;;;;;;13.40;5.97;;;12.00;99.90;;;;;;4876942;29;20045;-68
2023/09/25 08:29:38;;;;;;;5.63;4.88;;;12.20;99.90;;;;;;4863824;29;20037;-68
2023/09/25 08:32:09;;;;;;;12.40;4.90;;;12.30;99.90;;;;;;4863694;29;20041;-68
2023/09/25 08:34:41;;;;;;;11.90;4.15;;;12.40;99.90;;;;;;4883698;29;20124;-68
2023/09/25 08:37:13;;;;;;;8.27;4.55;;;12.50;99.90;;;;;;4884575;29;20390;-69
2023/09/25 08:39:45;;;;;;;11.55;4.85;;;12.60;99.90;;;;;;4888312;29;20056;-68
2023/09/25 08:42:22;;;;;;;14.90;4.85;;;12.80;99.90;;;;;;4887764;29;20040;-68
2023/09/25 08:44:51;;;;;;;7.70;3.88;;;12.90;99.90;;;;;;4855427;29;20049;-68
2023/09/25 08:47:24;;;;;;;15.73;4.60;;;13.10;99.90;;;;;;4894196;29;20036;-68
2023/09/25 08:49:56;;;;;;;6.68;3.80;;;13.20;99.90;;;;;;4890771;29;20051;-67
2023/09/25 08:52:29;;;;;;;27.83;6.03;;;13.30;99.90;;;;;;4874200;29;20521;-68
2023/09/25 08:55:02;;;;;;;7.45;3.65;;;13.50;99.90;;;;;;4870761;29;20109;-69
2023/09/25 08:57:37;;;;;;;9.27;3.40;;;13.60;99.90;;;;;;4894978;29;20533;-69
2023/09/25 09:00:14;;;;;;;3.88;2.83;;;13.70;99.90;;;;;;4873058;29;20084;-69
2023/09/25 09:02:41;;;;;;;13.52;3.55;;;13.80;99.90;;;;;;4867953;29;20131;-69
2023/09/25 09:05:13;;;;;;;5.40;3.05;;;14.00;99.90;;;;;;4889376;29;20538;-69
2023/09/25 09:08:16;;;;;;;9.98;2.85;;;14.10;99.90;;;;;;4878741;29;20048;-68
2023/09/25 09:10:48;;;;;;;10.95;3.70;;;14.20;99.90;;;;;;4882376;29;20052;-69
2023/09/25 09:13:21;;;;;;;10.75;4.03;;;14.40;99.90;;;;;;4887018;29;20036;-70
2023/09/25 09:15:53;;;;;;;6.22;2.80;;;14.50;99.90;;;;;;4876165;29;20429;-68
2023/09/25 09:18:25;;;;;;;5.22;2.53;;;14.60;99.90;;;;;;4873623;29;20044;-67
2023/09/25 09:20:54;;;;;;;10.40;2.70;;;14.70;99.90;;;;;;4889073;29;20056;-68
2023/09/25 09:23:39;;;;;;;;;;;14.80;99.90;;;;;;4890054;29;20450;-68
2023/09/25 09:26:12;;;;;;;7.28;2.35;;;15.00;99.90;;;;;;4889344;29;19931;-68
2023/09/25 09:28:43;;;;;;;7.35;2.53;;;15.10;99.90;;;;;;4863425;29;20128;-69
2023/09/25 09:31:18;;;;;;;2.78;2.22;;;15.20;99.90;;;;;;4881376;29;20124;-70
2023/09/25 09:33:54;;;;;;;6.03;2.33;;;15.30;99.90;;;;;;4875039;29;20045;-68
2023/09/25 09:36:28;;;;;;;4.70;3.20;;;15.50;99.90;;;;;;4890713;29;20044;-69
2023/09/25 09:38:56;;;;;;;4.38;2.47;;;15.60;99.90;;;;;;4881283;29;20103;-69
2023/09/25 09:41:24;;;;;;;4.55;2.80;;;15.70;99.90;;;;;;4892962;29;20041;-68
2023/09/25 09:43:56;;;;;;;3.83;2.13;;;15.80;99.90;;;;;;4892948;29;20045;-70
2023/09/25 09:46:29;;;;;;;4.72;2.20;;;15.90;99.90;;;;;;4887444;29;20037;-68
2023/09/25 09:49:02;;;;;;;3.55;2.53;;;16.00;99.90;;;;;;4889981;29;20139;-68
2023/09/25 09:51:34;;;;;;;2.80;2.50;;;16.10;99.90;;;;;;4888885;29;20043;-68
2023/09/25 09:54:05;;;;;;;3.45;2.20;;;16.20;99.90;;;;;;4890245;29;20687;-68
2023/09/25 09:56:39;;;;;;;3.67;2.08;;;16.20;99.90;;;;;;4878201;29;20101;-69
2023/09/25 09:59:11;;;;;;;3.92;2.22;;;16.30;99.90;;;;;;4872234;29;20055;-68
2023/09/25 10:01:50;;;;;;;4.72;2.38;;;16.40;99.90;;;;;;4883600;29;20044;-70
2023/09/25 10:04:22;;;;;;;3.55;2.28;;;16.50;99.90;;;;;;4864087;29;20065;-68
2023/09/25 10:07:00;;;;;;;3.53;2.35;;;16.60;99.90;;;;;;4869234;29;20057;-70
2023/09/25 10:09:32;;;;;;;2.53;2.20;;;16.60;99.90;;;;;;4892527;29;20037;-70
2023/09/25 10:12:05;;;;;;;2.78;2.08;;;16.70;99.90;;;;;;4884466;29;20172;-67
2023/09/25 10:14:40;;;;;;;2.67;2.05;;;16.80;99.90;;;;;;4885809;29;20413;-68
2023/09/25 10:17:12;;;;;;;3.75;2.20;;;16.90;99.90;;;;;;4889728;29;20059;-68
2023/09/25 10:19:48;;;;;;;3.55;2.22;;;17.00;99.90;;;;;;4889103;29;20052;-68
2023/09/25 10:22:26;;;;;;;3.50;2.03;;;17.10;99.90;;;;;;4874202;29;20040;-69
2023/09/25 10:25:04;;;;;;;3.50;2.40;;;17.10;99.90;;;;;;4888189;29;20041;-67
2023/09/25 10:27:36;;;;;;;3.53;2.70;;;17.20;99.90;;;;;;4885187;29;20045;-67
2023/09/25 10:30:20;;;;;;;4.47;2.33;;;17.40;99.90;;;;;;4890914;29;20049;-67
2023/09/25 10:32:55;;;;;;;5.10;2.42;;;17.40;99.90;;;;;;4894379;29;20113;-68
2023/09/25 10:35:44;;;;;;;2.75;2.42;;;17.50;99.90;;;;;;4884762;29;20063;-68
2023/09/25 10:38:25;;;;;;;4.93;2.22;;;17.60;99.90;;;;;;4881978;29;20045;-68
2023/09/25 10:41:08;;;;;;;4.65;2.45;;;17.70;99.90;;;;;;4893824;29;20044;-69
2023/09/25 10:43:36;;;;;;;5.45;2.30;;;17.70;99.90;;;;;;4887832;29;20037;-68
2023/09/25 10:46:10;;;;;;;5.07;3.00;;;17.80;99.90;;;;;;4870232;29;20045;-67
2023/09/25 10:48:42;;;;;;;4.18;2.35;;;17.90;99.90;;;;;;4879167;29;20510;-67
2023/09/25 10:51:15;;;;;;;4.07;2.55;;;17.90;99.90;;;;;;4892769;29;20429;-66
2023/09/25 10:53:48;;;;;;;3.08;2.20;;;18.00;99.90;;;;;;4889895;29;20041;-68
2023/09/25 10:56:19;;;;;;;5.97;2.50;;;18.00;99.90;;;;;;4889210;29;20063;-68
2023/09/25 10:58:52;;;;;;;5.60;2.70;;;18.10;99.90;;;;;;4876872;29;20135;-67
2023/09/25 11:01:29;;;;;;;3.63;2.50;;;18.20;99.90;;;;;;4870859;29;20049;-70
2023/09/25 11:03:59;;;;;;;3.85;2.65;;;18.20;99.90;;;;;;4886292;29;20144;-67
2023/09/25 11:06:27;;;;;;;5.38;3.05;;;18.30;99.90;;;;;;4886966;29;20044;-68
2023/09/25 11:09:06;;;;;;;4.35;2.70;;;18.30;99.90;;;;;;4874809;29;20051;-68
2023/09/25 11:11:40;;;;;;;6.55;3.03;;;18.30;99.90;;;;;;4888706;29;20045;-70
2023/09/25 11:14:13;;;;;;;4.75;2.60;;;18.40;99.90;;;;;;4871398;29;20060;-68
2023/09/25 11:16:40;;;;;;;7.30;3.47;;;18.50;99.90;;;;;;4888147;29;20095;-69
2023/09/25 11:19:14;;;;;;;3.35;2.85;;;18.60;99.90;;;;;;4889646;29;20525;-69
2023/09/25 11:21:46;;;;;;;10.25;3.72;;;18.60;99.90;;;;;;4886220;29;20474;-68
2023/09/25 11:24:13;;;;;;;3.83;2.95;;;18.60;99.90;;;;;;4856025;29;20440;-68
2023/09/25 11:26:45;;;;;;;5.65;3.30;;;18.70;99.90;;;;;;4861213;29;20049;-69
2023/09/25 11:29:17;;;;;;;7.93;3.60;;;18.70;99.90;;;;;;4889751;29;20056;-70
2023/09/25 11:31:43;;;;;;;3.95;3.47;;;18.70;99.90;;;;;;4887784;29;20486;-69
2023/09/25 11:34:10;;;;;;;4.43;2.90;;;18.80;99.90;;;;;;4875699;29;20378;-69
2023/09/25 11:36:44;;;;;;;3.60;2.67;;;18.90;99.90;;;;;;4887940;29;20394;-69
2023/09/25 11:39:17;;;;;;;4.22;2.60;;;19.00;99.90;;;;;;4885003;29;20211;-69
2023/09/25 11:41:49;;;;;;;4.25;2.90;;;19.10;99.90;;;;;;4868947;29;20041;-69
2023/09/25 11:44:21;;;;;;;4.75;3.20;;;19.10;99.90;;;;;;4884307;29;20045;-67
2023/09/25 11:46:53;;;;;;;7.10;3.38;;;19.20;99.90;;;;;;4881135;29;20045;-69
2023/09/25 11:49:25;;;;;;;3.92;3.35;;;19.30;99.90;;;;;;4890368;29;20067;-67
2023/09/25 11:51:52;;;;;;;5.03;2.85;;;19.40;99.90;;;;;;4886791;29;20033;-68
2023/09/25 11:54:24;;;;;;;3.45;2.92;;;19.50;99.90;;;;;;4889543;29;20052;-70
2023/09/25 11:56:57;;;;;;;5.30;3.67;;;19.50;99.90;;;;;;4888055;29;20057;-69
2023/09/25 11:59:24;;;;;;;3.88;3.08;;;19.50;99.90;;;;;;4859028;29;20045;-69
2023/09/25 12:01:51;;;;;;;5.00;3.30;;;19.50;99.90;;;;;;4872857;29;20043;-68
2023/09/25 12:04:18;;;;;;;8.32;7.03;;;19.60;99.90;;;;;;4891209;29;20536;-69
2023/09/25 12:06:51;;;;;;;6.45;3.70;;;19.60;99.90;;;;;;4890513;29;20040;-69
2023/09/25 12:09:24;;;;;;;4.55;3.22;;;19.70;99.90;;;;;;4866829;29;20056;-69
2023/09/25 12:11:50;;;;;;;3.88;3.05;;;19.80;99.90;;;;;;4882647;29;20558;-69
2023/09/25 12:14:22;;;;;;;4.50;2.47;;;19.90;99.90;;;;;;4874711;29;20040;-68
2023/09/25 12:16:54;;;;;;;3.53;2.28;;;20.00;99.90;;;;;;4891701;29;20416;-69
2023/09/25 12:19:26;;;;;;;8.68;3.35;;;20.00;99.90;;;;;;4886513;29;20068;-69
2023/09/25 12:21:57;;;;;;;4.03;2.55;;;20.00;99.90;;;;;;4889943;29;20048;-70
2023/09/25 12:24:24;;;;;;;4.22;2.80;;;20.00;99.90;;;;;;4893865;29;20041;-67
2023/09/25 12:26:56;;;;;;;3.15;2.83;;;20.10;99.90;;;;;;4892191;29;20045;-68
2023/09/25 12:29:28;;;;;;;8.82;4.35;;;20.10;99.90;;;;;;4892109;29;20055;-68
2023/09/25 12:32:03;;;;;;;13.13;5.25;;;20.10;99.90;;;;;;4897953;29;20041;-68
2023/09/25 12:34:35;;;;;;;23.05;8.07;;;20.20;99.90;;;;;;4890474;29;20128;-69
2023/09/25 12:37:07;;;;;;;16.08;4.88;;;20.30;99.90;;;;;;4890493;29;20056;-68
2023/09/25 12:39:34;;;;;;;3.35;2.58;;;20.30;99.90;;;;;;4889938;29;20131;-70
2023/09/25 12:42:02;;;;;;;4.53;2.90;;;20.30;99.90;;;;;;4890302;29;20040;-69
2023/09/25 12:44:34;;;;;;;4.47;2.83;;;20.30;99.90;;;;;;4891259;29;20055;-67
2023/09/25 12:47:06;;;;;;;5.85;2.60;;;20.30;99.90;;;;;;4877037;29;20301;-69
2023/09/25 12:49:35;;;;;;;5.60;2.95;;;20.30;99.90;;;;;;4889570;29;20043;-68
2023/09/25 12:52:07;;;;;;;5.88;2.55;;;20.30;99.90;;;;;;4894123;29;20036;-67
2023/09/25 12:54:34;;;;;;;4.30;2.53;;;20.40;99.90;;;;;;4877006;29;20461;-67
2023/09/25 12:57:07;;;;;;;4.15;2.30;;;20.50;99.90;;;;;;4893463;29;20056;-69
2023/09/25 12:59:40;;;;;;;;;;;20.50;99.90;;;;;;4871870;29;20661;-69
2023/09/25 13:02:12;;;;;;;3.63;2.38;;;20.60;99.90;;;;;;4893012;29;20448;-68
2023/09/25 13:04:44;;;;;;;7.53;2.67;;;20.70;99.90;;;;;;4880047;29;20418;-69
2023/09/25 13:07:16;;;;;;;3.75;2.30;;;20.70;99.90;;;;;;4886437;29;20040;-68
2023/09/25 13:09:49;;;;;;;6.22;2.78;;;20.70;99.90;;;;;;4887352;29;20051;-69
2023/09/25 13:12:21;;;;;;;;;;;20.70;99.90;;;;;;4879547;29;20052;-69
2023/09/25 13:14:53;;;;;;;3.75;2.30;;;20.80;99.90;;;;;;4871469;29;19929;-69
2023/09/25 13:17:20;;;;;;;9.02;3.30;;;20.80;99.90;;;;;;4890238;29;20061;-69